Time;durP1;ratioP1;P1;durP2;ratioP2;P2;SDS_P1;SDS_P2;PMS_P1;PMS_P2;Temp;Humidity;BMP_temperature;BMP_pressure;BME280_temperature;BME280_humidity;BME280_pressure;Samples;Min_cycle;Max_cycle;Signal;HPM_P1;HPM_P2
2021/12/28 06:03:34;;;;;;;14.93;8.40;;;;;;;-8.34;74.39;99253.19;5025664;28;106164;-63
2021/12/28 06:06:00;;;;;;;25.93;17.27;;;;;;;-8.27;73.92;99255.47;5024706;27;106281;-64
2021/12/28 06:08:25;;;;;;;26.10;15.37;;;;;;;-8.19;74.95;99250.78;5022696;27;105807;-61
2021/12/28 06:10:51;;;;;;;37.67;20.90;;;;;;;-8.08;75.53;99238.16;5024562;28;106070;-65
2021/12/28 06:13:17;;;;;;;21.73;13.37;;;;;;;-7.99;74.82;99237.69;5024364;28;105921;-66
2021/12/28 06:15:42;;;;;;;44.93;22.67;;;;;;;-7.89;74.87;99237.25;5025327;27;106074;-65
2021/12/28 06:18:08;;;;;;;51.40;26.37;;;;;;;-7.80;75.76;99241.13;5024516;28;106131;-66
2021/12/28 06:20:33;;;;;;;63.10;34.20;;;;;;;-7.70;75.12;99237.16;5022398;28;106138;-65
2021/12/28 06:23:02;;;;;;;42.43;21.87;;;;;;;-7.64;75.26;99242.00;5022623;28;106752;-66
2021/12/28 06:25:27;;;;;;;60.10;29.40;;;;;;;-7.56;75.56;99242.47;5024892;27;105802;-66
2021/12/28 06:27:53;;;;;;;74.10;35.07;;;;;;;-7.48;75.26;99234.31;5024007;28;106178;-66
2021/12/28 06:30:19;;;;;;;65.00;33.67;;;;;;;-7.43;75.50;99244.44;5023471;27;106615;-67
2021/12/28 06:32:44;;;;;;;76.93;37.87;;;;;;;-7.38;75.36;99252.78;5023733;28;105880;-67
2021/12/28 06:35:10;;;;;;;68.97;33.23;;;;;;;-7.32;74.92;99253.28;5024325;27;105883;-61
2021/12/28 06:37:36;;;;;;;57.67;33.77;;;;;;;-7.23;76.36;99246.81;5024191;28;106091;-68
2021/12/28 06:40:01;;;;;;;58.23;29.27;;;;;;;-7.16;75.48;99247.34;5023908;28;105879;-67
2021/12/28 06:42:27;;;;;;;68.50;35.43;;;;;;;-7.09;76.05;99238.31;5023447;27;106326;-67
2021/12/28 06:44:52;;;;;;;53.93;29.70;;;;;;;-7.03;75.24;99243.16;5024124;28;106080;-67
2021/12/28 06:47:18;;;;;;;41.17;23.20;;;;;;;-6.97;75.87;99249.75;5023460;27;106258;-68
2021/12/28 06:49:45;;;;;;;76.00;36.43;;;;;;;-6.92;76.44;99244.34;5023568;27;105966;-67
2021/12/28 06:52:11;;;;;;;62.63;32.27;;;;;;;-6.88;75.78;99238.06;5022964;28;105812;-68
2021/12/28 06:54:37;;;;;;;69.53;34.40;;;;;;;-6.84;75.19;99237.81;5024042;27;105930;-68
2021/12/28 06:57:08;;;;;;;47.57;29.03;;;;;;;-6.80;76.11;99235.91;5023500;27;106191;-67
2021/12/28 06:59:38;;;;;;;73.07;35.22;;;;;;;-6.75;75.76;99238.22;5023630;28;106107;-69
2021/12/28 07:02:04;;;;;;;50.25;26.33;;;;;;;-6.70;75.83;99251.78;5022337;27;106261;-72
2021/12/28 07:04:30;;;;;;;75.27;29.87;;;;;;;-6.67;76.41;99249.88;5023982;28;105864;-68
2021/12/28 07:06:56;;;;;;;66.80;34.93;;;;;;;-6.62;75.99;99241.84;5023804;27;105923;-68
2021/12/28 07:09:21;;;;;;;54.40;28.27;;;;;;;-6.58;76.54;99237.31;5023092;27;105925;-67
2021/12/28 07:11:46;;;;;;;71.37;33.90;;;;;;;-6.54;75.83;99239.66;5023225;27;105933;-68
2021/12/28 07:14:12;;;;;;;60.10;32.73;;;;;;;-6.46;76.00;99241.81;5014282;27;106343;-68
2021/12/28 07:16:37;;;;;;;58.20;32.53;;;;;;;-6.37;75.88;99230.09;5009811;28;106147;-69
2021/12/28 07:19:03;;;;;;;73.07;34.37;;;;;;;-6.29;76.21;99222.72;5009072;28;107675;-67
2021/12/28 07:21:28;;;;;;;53.70;29.23;;;;;;;-6.23;76.34;99224.13;5008956;28;106049;-67
2021/12/28 07:23:54;;;;;;;74.33;32.10;;;;;;;-6.17;75.10;99216.00;5009834;28;106116;-67
2021/12/28 07:26:19;;;;;;;63.77;29.53;;;;;;;-6.13;75.52;99218.34;5009886;28;106169;-68
2021/12/28 07:28:45;;;;;;;54.13;31.20;;;;;;;-6.05;75.21;99225.69;5009210;28;105964;-67
2021/12/28 07:31:10;;;;;;;61.33;30.10;;;;;;;-5.99;75.61;99219.31;5009203;28;106011;-67
2021/12/28 07:33:35;;;;;;;44.57;23.17;;;;;;;-5.89;75.50;99230.78;5010349;28;105882;-67
2021/12/28 07:36:01;;;;;;;62.60;32.63;;;;;;;-5.78;75.73;99220.63;5009373;28;106150;-68
2021/12/28 07:38:26;;;;;;;66.33;28.53;;;;;;;-5.68;75.94;99220.06;5009147;28;105888;-66
2021/12/28 07:40:51;;;;;;;49.93;21.20;;;;;;;-5.58;75.76;99213.41;5009179;28;106048;-67
2021/12/28 07:43:17;;;;;;;58.03;31.23;;;;;;;-5.46;75.49;99206.66;5009776;28;106024;-65
2021/12/28 07:45:42;;;;;;;38.93;20.13;;;;;;;-5.29;75.98;99226.38;5009111;28;106320;-65
2021/12/28 07:48:08;;;;;;;51.70;26.47;;;;;;;-5.13;75.84;99219.31;5009136;28;105891;-66
2021/12/28 07:50:34;;;;;;;49.30;25.63;;;;;;;-4.84;75.62;99221.91;5009263;28;106474;-66
2021/12/28 07:52:59;;;;;;;52.20;27.93;;;;;;;-4.40;75.63;99224.34;5010156;28;105799;-67
2021/12/28 07:55:24;;;;;;;72.10;31.47;;;;;;;-3.94;75.55;99205.75;5009529;28;106164;-65
2021/12/28 07:57:50;;;;;;;66.73;32.93;;;;;;;-3.43;75.13;99208.38;5008802;28;107149;-66
2021/12/28 08:00:18;;;;;;;72.07;35.13;;;;;;;-2.94;74.86;99211.97;5008979;28;105818;-66
2021/12/28 08:02:45;;;;;;;71.63;32.80;;;;;;;-2.53;74.74;99204.69;5008720;28;106135;-67
2021/12/28 08:05:12;;;;;;;48.15;26.67;;;;;;;-2.30;73.13;99213.47;5009767;28;106296;-66
2021/12/28 08:07:37;;;;;;;74.47;30.50;;;;;;;-2.02;73.01;99215.81;5008839;28;106375;-67
2021/12/28 08:10:03;;;;;;;66.72;30.92;;;;;;;-1.66;72.96;99216.66;5009121;28;106072;-67
2021/12/28 08:12:29;;;;;;;60.67;31.73;;;;;;;-1.30;72.30;99215.63;5009436;28;106087;-66
2021/12/28 08:14:54;;;;;;;63.80;30.92;;;;;;;-0.89;72.12;99210.72;5009050;28;105835;-67
2021/12/28 08:17:20;;;;;;;51.53;27.98;;;;;;;-0.57;71.48;99207.34;5008432;28;106524;-67
2021/12/28 08:19:45;;;;;;;73.65;33.58;;;;;;;-0.17;71.60;99209.34;5008517;28;106266;-66
2021/12/28 08:22:10;;;;;;;63.72;32.13;;;;;;;0.04;71.24;99203.28;5009281;28;105792;-67
2021/12/28 08:24:36;;;;;;;68.53;30.02;;;;;;;0.08;70.11;99204.69;5008347;28;106060;-68
2021/12/28 08:27:01;;;;;;;75.90;34.63;;;;;;;-0.17;69.64;99201.47;5008119;28;106071;-68
2021/12/28 08:29:27;;;;;;;78.20;35.67;;;;;;;-0.60;68.75;99192.72;5008035;28;106097;-67
2021/12/28 08:31:52;;;;;;;59.60;27.55;;;;;;;-0.87;69.39;99190.53;5009056;28;106007;-67
2021/12/28 08:34:18;;;;;;;53.30;27.88;;;;;;;-1.19;68.52;99186.03;5008354;28;106343;-66
2021/12/28 08:36:43;;;;;;;58.58;29.80;;;;;;;-1.52;68.24;99177.22;5008704;28;106093;-65
2021/12/28 08:39:09;;;;;;;74.93;31.75;;;;;;;-1.70;68.69;99169.84;5008581;28;105928;-66
2021/12/28 08:41:34;;;;;;;73.45;33.40;;;;;;;-1.76;69.89;99165.13;5008873;28;106338;-67
2021/12/28 08:44:00;;;;;;;73.07;35.72;;;;;;;-1.85;70.00;99164.97;5008171;28;106129;-67
2021/12/28 08:46:25;;;;;;;70.38;33.83;;;;;;;-1.99;69.28;99169.47;5008337;28;106110;-66
2021/12/28 08:48:51;;;;;;;66.43;35.35;;;;;;;-2.11;69.47;99173.81;5008472;28;105917;-66
2021/12/28 08:51:17;;;;;;;77.57;37.67;;;;;;;-2.22;69.78;99173.78;5008407;28;106111;-65
2021/12/28 08:53:42;;;;;;;69.20;34.40;;;;;;;-2.29;70.07;99180.41;4970241;27;106254;-72
2021/12/28 08:56:08;;;;;;;81.88;36.97;;;;;;;-2.32;69.99;99173.63;4987087;28;106126;-67
2021/12/28 08:58:33;;;;;;;68.13;32.75;;;;;;;-2.35;69.44;99173.00;4988239;28;105875;-65
2021/12/28 09:00:58;;;;;;;73.30;35.35;;;;;;;-2.39;69.80;99169.81;4989086;28;105754;-67
2021/12/28 09:03:24;;;;;;;72.55;34.95;;;;;;;-2.45;69.68;99163.25;4987951;28;106237;-65
2021/12/28 09:05:49;;;;;;;52.78;30.00;;;;;;;-2.46;69.58;99155.53;4987198;28;106094;-66
2021/12/28 09:08:17;;;;;;;79.22;37.38;;;;;;;-2.45;69.44;99162.44;4988136;28;105751;-67
2021/12/28 09:10:43;;;;;;;66.45;32.97;;;;;;;-2.44;70.11;99159.72;4988659;28;105942;-67
2021/12/28 09:13:09;;;;;;;75.90;35.30;;;;;;;-2.33;70.57;99160.72;4988281;28;106276;-67
2021/12/28 09:15:35;;;;;;;66.47;33.10;;;;;;;-2.24;69.84;99163.47;4986339;28;106046;-65
2021/12/28 09:18:01;;;;;;;64.63;32.13;;;;;;;-2.12;69.72;99153.06;4985558;28;106014;-66
2021/12/28 09:20:27;;;;;;;75.85;34.45;;;;;;;-1.92;69.13;99159.41;4986413;28;106661;-64
2021/12/28 09:22:53;;;;;;;61.80;32.08;;;;;;;-1.80;69.23;99153.25;4986018;28;106228;-64
2021/12/28 09:25:19;;;;;;;77.93;36.00;;;;;;;-1.63;69.15;99153.72;4986077;28;105932;-68
2021/12/28 09:27:46;;;;;;;70.50;34.03;;;;;;;-1.41;69.58;99147.69;4985874;28;106246;-66
2021/12/28 09:30:13;;;;;;;71.07;32.50;;;;;;;-1.27;69.06;99144.81;4987985;28;106027;-67
2021/12/28 09:32:39;;;;;;;77.72;38.33;;;;;;;-1.06;68.98;99147.53;4988436;28;106145;-66
2021/12/28 09:35:05;;;;;;;76.85;35.63;;;;;;;-0.73;68.75;99158.84;4987678;28;106162;-67
2021/12/28 09:37:33;;;;;;;75.05;35.53;;;;;;;-0.48;68.65;99135.94;4987413;28;105727;-68
2021/12/28 09:40:00;;;;;;;60.08;31.10;;;;;;;-0.35;68.06;99141.81;4988641;28;106802;-67
2021/12/28 09:42:26;;;;;;;70.82;30.75;;;;;;;-0.11;67.84;99119.84;4987125;28;106414;-68
2021/12/28 09:44:51;;;;;;;68.85;34.13;;;;;;;0.26;67.93;99111.50;4985524;28;106015;-69
2021/12/28 09:47:18;;;;;;;39.92;22.60;;;;;;;0.60;67.49;99111.22;4987515;28;105938;-68
2021/12/28 09:49:44;;;;;;;62.88;31.38;;;;;;;1.00;67.35;99118.22;4987989;28;105984;-67
2021/12/28 09:52:10;;;;;;;69.38;31.00;;;;;;;1.22;66.21;99111.06;4987649;28;106308;-69
2021/12/28 09:54:35;;;;;;;68.25;32.53;;;;;;;1.31;66.02;99105.00;4987616;28;106548;-68
2021/12/28 09:57:02;;;;;;;63.85;29.58;;;;;;;1.79;65.59;99112.97;4987414;28;105909;-69
2021/12/28 09:59:29;;;;;;;67.40;30.95;;;;;;;2.16;65.81;99099.91;4986664;28;105972;-68
2021/12/28 10:01:55;;;;;;;69.10;33.17;;;;;;;1.80;63.97;99114.66;4984462;28;106178;-68
2021/12/28 10:04:20;;;;;;;78.72;34.97;;;;;;;1.40;63.72;99099.91;4985162;28;105964;-68
2021/12/28 10:06:47;;;;;;;77.65;35.28;;;;;;;1.14;64.03;99095.19;4985330;28;106530;-68
2021/12/28 10:09:18;;;;;;;68.90;32.45;;;;;;;0.90;64.21;99101.63;4986255;28;106000;-68
2021/12/28 10:11:52;;;;;;;78.70;35.65;;;;;;;0.59;64.71;99078.09;4985228;28;106586;-68
2021/12/28 10:14:21;;;;;;;65.95;32.80;;;;;;;0.31;64.04;99096.19;4985915;28;106987;-68
2021/12/28 10:16:51;;;;;;;72.55;36.10;;;;;;;0.10;64.69;99088.38;4987214;28;106468;-69
2021/12/28 10:19:38;;;;;;;71.57;37.53;;;;;;;-0.01;64.98;99091.09;4988396;28;106029;-69
2021/12/28 10:22:24;;;;;;;67.78;31.80;;;;;;;-0.19;65.13;99088.22;4987678;28;106245;-68
2021/12/28 10:24:52;;;;;;;71.00;32.45;;;;;;;-0.27;65.25;99090.66;4987429;28;105944;-68
2021/12/28 10:27:20;;;;;;;71.97;33.28;;;;;;;-0.31;65.76;99091.88;4987141;28;106386;-68
2021/12/28 10:29:46;;;;;;;64.47;30.05;;;;;;;-0.33;65.66;99081.50;4987927;28;106429;-68
2021/12/28 10:32:15;;;;;;;72.35;34.25;;;;;;;-0.42;65.33;99093.56;4987228;28;106171;-68
2021/12/28 10:34:49;;;;;;;61.25;28.67;;;;;;;-0.49;65.47;99076.72;4987040;28;105915;-68
2021/12/28 10:37:21;;;;;;;66.85;32.03;;;;;;;-0.56;65.73;99086.03;4987147;28;105966;-68
2021/12/28 10:39:49;;;;;;;64.70;33.30;;;;;;;-0.55;65.60;99072.84;4987539;28;105890;-69
2021/12/28 10:42:36;;;;;;;67.80;32.40;;;;;;;-0.51;65.96;99060.31;4987407;28;106158;-69
2021/12/28 10:45:04;;;;;;;72.80;33.92;;;;;;;-0.40;66.50;99060.25;4986967;28;106019;-68
2021/12/28 10:47:30;;;;;;;77.15;33.38;;;;;;;-0.36;65.99;99050.38;4987072;28;105929;-67
2021/12/28 10:49:57;;;;;;;70.10;34.00;;;;;;;-0.36;65.54;99043.34;4990083;28;106239;-68
2021/12/28 10:52:37;;;;;;;55.33;26.90;;;;;;;-0.39;65.72;99040.16;4991279;28;106530;-68
2021/12/28 10:55:24;;;;;;;63.80;31.97;;;;;;;-0.32;66.47;99019.53;4990793;28;106279;-68
2021/12/28 10:57:50;;;;;;;69.05;32.17;;;;;;;-0.30;65.56;99021.06;4990042;28;106829;-68
2021/12/28 11:00:28;;;;;;;64.15;33.05;;;;;;;-0.26;66.21;99026.88;4990984;28;105826;-68
2021/12/28 11:03:12;;;;;;;51.60;26.25;;;;;;;-0.27;65.84;99012.16;4989787;28;106157;-68
2021/12/28 11:05:37;;;;;;;62.55;30.33;;;;;;;-0.33;65.35;99021.31;4990275;28;105865;-68
2021/12/28 11:08:07;;;;;;;68.43;31.88;;;;;;;-0.32;65.70;99009.06;4990089;28;105982;-69
2021/12/28 11:10:35;;;;;;;62.70;31.33;;;;;;;-0.24;65.98;99006.63;4991035;28;106506;-68
2021/12/28 11:13:00;;;;;;;60.83;30.02;;;;;;;-0.17;65.84;99008.59;4990151;28;105904;-68
2021/12/28 11:15:26;;;;;;;66.80;32.70;;;;;;;-0.08;65.46;98998.28;4989994;28;105917;-68
2021/12/28 11:17:52;;;;;;;67.18;31.75;;;;;;;0.02;65.80;98991.31;4989437;28;105981;-68
2021/12/28 11:20:30;;;;;;;61.30;29.30;;;;;;;0.13;65.82;98990.41;4990563;28;106069;-68
2021/12/28 11:23:13;;;;;;;50.97;28.67;;;;;;;0.21;65.82;98976.63;4989586;28;106215;-68
2021/12/28 11:25:39;;;;;;;60.03;28.38;;;;;;;0.23;65.22;98978.13;4989967;28;106053;-68
2021/12/28 11:28:13;;;;;;;48.17;23.77;;;;;;;0.26;65.29;98982.28;4989582;28;105743;-69
2021/12/28 11:30:40;;;;;;;56.85;28.10;;;;;;;0.31;65.40;98975.69;4990090;28;105931;-71
2021/12/28 11:33:07;;;;;;;59.75;30.33;;;;;;;0.40;65.74;98975.88;4990269;28;105738;-68
2021/12/28 11:35:33;;;;;;;65.03;30.70;;;;;;;0.51;65.60;98965.25;4989472;28;105942;-67
2021/12/28 11:37:59;;;;;;;62.33;29.92;;;;;;;0.56;65.18;98963.06;4989184;28;106308;-65
2021/12/28 11:40:25;;;;;;;73.40;32.67;;;;;;;0.58;65.21;98953.25;4990362;28;106017;-64
2021/12/28 11:42:50;;;;;;;69.78;33.17;;;;;;;0.62;64.86;98961.69;4989106;28;106218;-64
2021/12/28 11:45:19;;;;;;;57.35;27.92;;;;;;;0.64;64.64;98960.59;4989047;28;106197;-65
2021/12/28 11:47:45;;;;;;;64.45;30.65;;;;;;;0.65;64.99;98964.84;4989329;28;105901;-64
2021/12/28 11:50:11;;;;;;;74.70;33.60;;;;;;;0.69;65.00;98956.72;4989960;28;105830;-66
2021/12/28 11:52:39;;;;;;;61.58;29.15;;;;;;;0.73;65.10;98960.72;4989609;28;106040;-66
2021/12/28 11:55:08;;;;;;;68.15;32.05;;;;;;;0.74;64.61;98951.88;4989263;28;106064;-66
2021/12/28 11:57:34;;;;;;;70.95;32.75;;;;;;;0.77;64.79;98949.00;4989592;28;107653;-66
2021/12/28 12:00:10;;;;;;;66.35;31.27;;;;;;;0.80;64.77;98943.47;4989718;28;105920;-65
2021/12/28 12:02:43;;;;;;;61.00;31.02;;;;;;;0.78;64.38;98937.53;4988471;28;106133;-66
2021/12/28 12:05:43;;;;;;;54.45;28.40;;;;;;;0.76;64.86;98931.59;4989378;28;105944;-66
2021/12/28 12:08:14;;;;;;;71.50;35.10;;;;;;;0.70;64.49;98930.38;4985173;28;106347;-65
2021/12/28 12:10:41;;;;;;;;;;;;;;;0.69;64.67;98928.72;4990774;28;106112;-66
2021/12/28 12:13:13;;;;;;;51.35;24.13;;;;;;;0.67;64.49;98928.03;4990088;28;106128;-66
2021/12/28 12:15:42;;;;;;;57.20;27.70;;;;;;;0.66;64.50;98934.22;4989448;28;106310;-66
2021/12/28 12:18:11;;;;;;;75.77;33.47;;;;;;;0.61;64.48;98934.63;4988698;28;106134;-67
2021/12/28 12:20:37;;;;;;;68.15;32.00;;;;;;;0.58;64.31;98929.66;4989679;28;105926;-65
2021/12/28 12:23:08;;;;;;;64.93;30.23;;;;;;;0.54;64.17;98943.19;4988914;28;105995;-64
2021/12/28 12:26:04;;;;;;;60.35;28.55;;;;;;;0.45;64.35;98950.91;4988853;28;106007;-64
2021/12/28 12:28:35;;;;;;;44.95;24.17;;;;;;;0.41;64.23;98954.75;4988838;28;106174;-65
2021/12/28 12:31:03;;;;;;;56.08;27.77;;;;;;;0.37;64.67;98937.66;4989517;28;105858;-64
2021/12/28 12:33:40;;;;;;;58.22;29.98;;;;;;;0.34;64.61;98937.91;4988640;28;106296;-63
2021/12/28 12:36:08;;;;;;;47.53;23.08;;;;;;;0.33;64.67;98942.31;4988790;28;106122;-66
2021/12/28 12:38:36;;;;;;;69.57;29.33;;;;;;;0.35;64.80;98938.75;4988554;28;105926;-64
2021/12/28 12:41:01;;;;;;;59.30;28.33;;;;;;;0.33;64.74;98929.22;4989549;28;106615;-63
2021/12/28 12:46:16;;;;;;;62.65;29.50;;;;;;;0.35;64.97;98944.81;4985225;28;106397;-64
2021/12/28 12:48:42;;;;;;;59.28;31.88;;;;;;;0.35;64.96;98938.75;4987642;28;106149;-64
2021/12/28 12:51:22;;;;;;;58.53;27.55;;;;;;;0.30;64.71;98942.59;4989310;28;105919;-63
2021/12/28 12:53:58;;;;;;;;;;;;;;;0.30;64.83;98926.88;4989212;28;106900;-63
2021/12/28 12:56:28;;;;;;;42.88;22.25;;;;;;;0.31;65.16;98912.81;4987263;28;110052;-65
2021/12/28 12:58:57;;;;;;;62.87;29.30;;;;;;;0.29;65.28;98914.75;4988344;28;106059;-64
2021/12/28 13:01:30;;;;;;;52.25;30.17;;;;;;;0.38;65.03;98917.50;4988574;28;106772;-65
2021/12/28 13:04:00;;;;;;;68.07;30.02;;;;;;;0.44;64.90;98907.31;4987449;28;105822;-65
2021/12/28 13:06:40;;;;;;;68.50;29.67;;;;;;;0.53;65.28;98894.34;4985272;28;106988;-65
2021/12/28 13:09:15;;;;;;;48.53;24.55;;;;;;;0.61;65.00;98892.69;4986060;28;106252;-64
2021/12/28 13:11:42;;;;;;;50.17;24.00;;;;;;;0.69;64.78;98885.94;4986069;28;106976;-65
2021/12/28 13:14:11;;;;;;;62.72;29.33;;;;;;;0.77;65.39;98886.09;4985950;28;106403;-65
2021/12/28 13:16:36;;;;;;;60.50;28.77;;;;;;;0.83;64.74;98885.50;4985750;28;106487;-65
2021/12/28 13:19:09;;;;;;;66.50;29.15;;;;;;;0.85;65.02;98873.09;4986609;28;106562;-66
2021/12/28 13:21:35;;;;;;;59.53;28.30;;;;;;;0.82;65.04;98883.84;4988628;28;105880;-65
2021/12/28 13:24:08;;;;;;;62.60;27.55;;;;;;;0.78;65.16;98890.34;4987963;28;106224;-65
2021/12/28 13:26:42;;;;;;;59.60;30.27;;;;;;;0.73;64.95;98879.47;4987797;28;106228;-65
2021/12/28 13:29:07;;;;;;;53.20;26.60;;;;;;;0.70;65.11;98874.47;4987752;28;106283;-67
2021/12/28 13:31:32;;;;;;;51.45;28.58;;;;;;;0.69;65.44;98880.72;4988182;28;106241;-67
2021/12/28 13:33:58;;;;;;;62.05;31.95;;;;;;;0.67;65.49;98875.59;4987634;28;106162;-67
2021/12/28 13:36:24;;;;;;;62.13;30.80;;;;;;;0.67;65.63;98863.31;4987596;28;106037;-65
2021/12/28 13:38:49;;;;;;;67.35;30.15;;;;;;;0.73;65.58;98855.88;4987507;28;107165;-66
2021/12/28 13:41:14;;;;;;;50.45;26.20;;;;;;;0.74;65.96;98844.41;4988548;28;105929;-66
2021/12/28 13:43:40;;;;;;;59.17;27.58;;;;;;;0.75;65.94;98846.06;4987460;28;106255;-64
2021/12/28 13:46:09;;;;;;;60.72;29.38;;;;;;;0.78;66.01;98830.03;4987656;28;105834;-66
2021/12/28 13:48:42;;;;;;;51.45;25.15;;;;;;;0.82;66.15;98841.91;4987850;28;105848;-68
2021/12/28 13:51:11;;;;;;;59.63;27.65;;;;;;;1.03;66.49;98835.66;4988811;28;105778;-68
2021/12/28 13:53:51;;;;;;;61.45;30.33;;;;;;;1.19;65.89;98828.03;4987864;28;106191;-67
2021/12/28 13:56:32;;;;;;;65.20;28.48;;;;;;;1.37;66.08;98830.72;4987983;28;105917;-67
2021/12/28 13:58:58;;;;;;;54.55;25.95;;;;;;;1.37;65.73;98825.47;4987641;28;106447;-65
2021/12/28 14:01:25;;;;;;;63.28;29.80;;;;;;;1.37;65.73;98829.88;4988338;28;106067;-65
2021/12/28 14:04:04;;;;;;;61.80;30.63;;;;;;;1.53;65.92;98845.81;4987707;28;106277;-65
2021/12/28 14:06:32;;;;;;;61.58;29.05;;;;;;;1.57;65.64;98835.84;4987865;28;106381;-66
2021/12/28 14:09:01;;;;;;;58.08;28.27;;;;;;;1.58;65.68;98822.59;4987245;28;105959;-66
2021/12/28 14:11:38;;;;;;;64.95;28.15;;;;;;;1.67;65.68;98828.78;4987749;28;106092;-65
2021/12/28 14:14:26;;;;;;;62.03;29.45;;;;;;;1.82;65.63;98835.16;4987308;28;106221;-65
2021/12/28 14:16:58;;;;;;;64.50;30.77;;;;;;;2.26;65.96;98852.84;4986949;28;107093;-66
2021/12/28 14:19:25;;;;;;;66.80;30.40;;;;;;;2.56;65.76;98829.78;4987071;28;106425;-67
2021/12/28 14:21:50;;;;;;;63.40;30.58;;;;;;;2.74;65.05;98839.47;4987805;28;106035;-64
2021/12/28 14:24:16;;;;;;;66.57;29.83;;;;;;;2.66;64.28;98838.41;4989231;28;106150;-66
2021/12/28 14:26:46;;;;;;;62.17;29.83;;;;;;;2.46;64.24;98843.03;4990766;28;105745;-66
2021/12/28 14:29:15;;;;;;;75.22;35.80;;;;;;;2.30;64.38;98854.22;4990993;28;105933;-64
2021/12/28 14:31:48;;;;;;;75.05;33.13;;;;;;;2.32;64.63;98846.16;4991077;28;106061;-66
2021/12/28 14:34:28;;;;;;;68.47;32.50;;;;;;;2.23;64.64;98842.66;4991169;28;105782;-66
2021/12/28 14:47:57;;;;;;;74.15;34.17;;;;;;;1.11;64.32;98848.91;5025984;28;105902;-66
2021/12/28 14:50:30;;;;;;;75.25;34.47;;;;;;;0.92;64.32;98841.91;5008406;27;106104;-64
2021/12/28 14:52:57;;;;;;;70.13;36.10;;;;;;;0.80;64.86;98849.09;5023955;28;105921;-65
2021/12/28 14:55:30;;;;;;;73.95;36.30;;;;;;;0.69;65.23;98844.00;5017107;28;106839;-63
2021/12/28 14:58:05;;;;;;;76.30;36.33;;;;;;;0.59;65.58;98844.84;5015544;28;106102;-66
2021/12/28 15:00:35;;;;;;;72.10;34.08;;;;;;;0.49;65.98;98847.47;5008713;27;106006;-66
2021/12/28 15:03:09;;;;;;;80.22;36.13;;;;;;;0.41;66.06;98838.63;5007839;28;106090;-67
2021/12/28 15:05:42;;;;;;;83.30;37.83;;;;;;;0.31;66.33;98839.44;5015054;27;106473;-64
2021/12/28 15:08:07;;;;;;;77.78;35.55;;;;;;;0.23;66.09;98835.88;5003789;28;106596;-63
2021/12/28 15:10:36;;;;;;;71.85;36.25;;;;;;;0.12;66.25;98834.22;5004723;28;106386;-64
2021/12/28 15:13:04;;;;;;;83.20;36.28;;;;;;;0.02;66.48;98838.63;5007143;28;106246;-64
2021/12/28 15:15:31;;;;;;;76.38;37.15;;;;;;;-0.08;66.69;98826.34;5010228;28;105926;-64
2021/12/28 15:17:57;;;;;;;73.88;35.75;;;;;;;-0.16;66.94;98834.06;5013106;27;106032;-66
2021/12/28 15:20:23;;;;;;;75.90;35.63;;;;;;;-0.21;66.82;98833.63;5018184;28;106090;-65
2021/12/28 15:22:48;;;;;;;83.43;38.55;;;;;;;-0.25;67.45;98824.38;5006505;27;105896;-66
2021/12/28 15:25:16;;;;;;;77.75;37.85;;;;;;;-0.33;67.36;98829.47;5018941;27;106322;-67
2021/12/28 15:27:42;;;;;;;81.30;37.60;;;;;;;-0.37;67.80;98819.28;5011341;28;106034;-65
2021/12/28 15:30:11;;;;;;;82.45;38.83;;;;;;;-0.39;67.75;98810.72;5012037;27;106280;-65
2021/12/28 15:32:37;;;;;;;74.65;36.15;;;;;;;-0.40;68.08;98814.28;5019589;28;106855;-65
2021/12/28 15:35:03;;;;;;;74.13;36.95;;;;;;;-0.41;68.16;98814.41;5006667;28;106257;-65
2021/12/28 15:37:29;;;;;;;69.93;36.08;;;;;;;-0.42;68.29;98810.16;5016377;27;106185;-65
2021/12/28 15:39:54;;;;;;;74.20;37.03;;;;;;;-0.42;68.93;98810.16;5013139;28;106105;-64
2021/12/28 15:42:20;;;;;;;63.38;32.70;;;;;;;-0.45;68.73;98806.03;5009736;27;106168;-64
2021/12/28 15:44:45;;;;;;;64.38;31.05;;;;;;;-0.45;68.82;98800.78;5019658;28;106037;-66
2021/12/28 15:47:10;;;;;;;58.30;29.90;;;;;;;-0.43;68.87;98808.50;5007192;28;106007;-66
2021/12/28 15:49:36;;;;;;;51.70;24.45;;;;;;;-0.43;68.96;98798.84;5016512;27;105947;-66
2021/12/28 15:52:02;;;;;;;53.35;26.83;;;;;;;-0.42;69.26;98797.09;5014702;28;106274;-66
2021/12/28 15:54:27;;;;;;;49.75;25.02;;;;;;;-0.41;69.28;98799.56;5008357;28;107423;-66
2021/12/28 15:56:53;;;;;;;58.53;26.77;;;;;;;-0.39;69.65;98789.78;5019907;28;106271;-67
2021/12/28 15:59:18;;;;;;;45.60;20.52;;;;;;;-0.36;70.10;98779.03;4995735;28;106106;-66
2021/12/28 16:01:44;;;;;;;52.47;25.95;;;;;;;-0.31;70.44;98780.44;5001055;28;105965;-66
2021/12/28 16:04:09;;;;;;;52.45;24.63;;;;;;;-0.32;70.22;98763.91;5001633;28;106075;-65
2021/12/28 16:06:36;;;;;;;53.70;27.83;;;;;;;-0.33;70.36;98771.88;5009676;28;105788;-65
2021/12/28 16:09:03;;;;;;;57.90;27.08;;;;;;;-0.34;70.17;98763.22;5007073;28;106080;-65
2021/12/28 16:11:28;;;;;;;51.67;27.95;;;;;;;-0.38;70.04;98760.03;4996287;28;106175;-65
2021/12/28 16:13:56;;;;;;;58.83;25.77;;;;;;;-0.39;70.45;98747.09;4999142;28;106043;-67
2021/12/28 16:16:22;;;;;;;60.65;28.98;;;;;;;-0.40;70.39;98738.41;5003087;28;106300;-66
2021/12/28 16:18:50;;;;;;;64.47;29.65;;;;;;;-0.41;70.43;98734.16;4993338;28;105848;-67
2021/12/28 16:21:17;;;;;;;63.50;29.05;;;;;;;-0.38;70.55;98749.56;5004276;28;106218;-68
2021/12/28 16:23:43;;;;;;;57.38;26.30;;;;;;;-0.34;71.13;98760.59;4997523;28;106172;-67
2021/12/28 16:26:08;;;;;;;57.30;26.58;;;;;;;-0.26;71.37;98752.06;4996314;28;106122;-67
2021/12/28 16:28:34;;;;;;;56.28;26.95;;;;;;;-0.25;71.36;98746.69;4999373;28;106107;-65
2021/12/28 16:31:00;;;;;;;61.28;27.73;;;;;;;-0.23;71.37;98746.56;4990030;28;106719;-67
2021/12/28 16:33:25;;;;;;;57.00;23.83;;;;;;;-0.25;70.94;98730.97;4988910;28;106752;-66
2021/12/28 16:35:51;;;;;;;46.33;22.90;;;;;;;-0.24;71.19;98735.25;4995499;28;106231;-66
2021/12/28 16:38:16;;;;;;;34.25;19.33;;;;;;;-0.21;71.88;98739.41;5009596;28;105951;-67
2021/12/28 16:40:42;;;;;;;38.90;19.27;;;;;;;-0.15;71.92;98732.78;5006149;28;106260;-65
2021/12/28 16:43:07;;;;;;;41.13;22.88;;;;;;;-0.15;71.94;98735.41;5007482;28;106664;-64
2021/12/28 16:45:35;;;;;;;43.03;22.38;;;;;;;-0.15;71.59;98728.38;5007317;28;106040;-65
2021/12/28 16:48:01;;;;;;;39.45;19.00;;;;;;;-0.15;71.87;98717.06;5008470;28;106181;-64
2021/12/28 16:50:29;;;;;;;35.35;17.38;;;;;;;-0.16;72.33;98726.72;5008076;28;106376;-64
2021/12/28 16:52:54;;;;;;;33.72;16.77;;;;;;;-0.14;72.22;98724.78;5006763;28;106798;-67
2021/12/28 16:55:20;;;;;;;36.15;16.63;;;;;;;-0.17;72.21;98725.88;5007329;28;106558;-65
2021/12/28 16:57:46;;;;;;;36.25;15.15;;;;;;;-0.17;72.87;98720.66;5008250;28;106027;-66
2021/12/28 17:00:13;;;;;;;34.13;15.20;;;;;;;-0.13;72.67;98715.16;5007391;28;106133;-65
2021/12/28 17:02:39;;;;;;;30.50;16.58;;;;;;;-0.14;72.85;98709.09;5006983;28;107410;-67
2021/12/28 17:05:05;;;;;;;27.58;15.23;;;;;;;-0.12;72.90;98698.47;5007235;28;106023;-66
2021/12/28 17:07:31;;;;;;;23.80;12.20;;;;;;;-0.12;73.19;98696.69;5008181;28;106442;-67
2021/12/28 17:09:57;;;;;;;32.85;17.50;;;;;;;-0.12;73.40;98677.53;5006514;28;105880;-66
2021/12/28 17:12:23;;;;;;;30.55;17.02;;;;;;;-0.12;73.12;98677.53;5007190;28;107075;-67
2021/12/28 17:14:48;;;;;;;35.10;18.48;;;;;;;-0.12;72.87;98695.84;5007109;28;106154;-66
2021/12/28 17:17:14;;;;;;;30.45;15.05;;;;;;;-0.11;73.69;98702.75;5007620;28;106491;-66
2021/12/28 17:19:40;;;;;;;28.60;13.93;;;;;;;-0.07;73.60;98715.44;5007331;28;106161;-67
2021/12/28 17:22:05;;;;;;;30.30;15.82;;;;;;;-0.01;73.49;98707.00;5006831;28;106348;-66
2021/12/28 17:24:31;;;;;;;29.02;14.98;;;;;;;0.04;74.03;98709.22;5004059;28;106374;-67
2021/12/28 17:26:57;;;;;;;22.38;10.65;;;;;;;0.12;73.98;98714.59;5002424;28;106107;-66
2021/12/28 17:29:22;;;;;;;28.15;15.23;;;;;;;0.16;73.92;98708.13;5008305;28;106123;-67
2021/12/28 17:31:49;;;;;;;37.42;16.80;;;;;;;0.20;73.74;98706.03;5008565;28;106596;-66